Hlavní strana
METAR-TAF:

METAR-TAF

Letiště :

Sabadell, Španělsko

zeměpisná šířka: 41-31N, zeměpisná délka: 002-06E, výška: 250 m

Aktuální stav počasí

Zpráva byla vytvořena před 39 minutami, v 09:30 UTC
Jihozápadní vítr 1 kt
Teplota 16°C
Vlhkost vzduchu 59%
Tlak 1024 hPa
Viditelnost 10 km a více
Žádná oblačnost pod 1500 m, nevyskytují se cumulonimby.

METAR: LELL 060930Z AUTO 22001KT CAVOK 16/08 Q1024

Čas: 12:09 (10:09 UTC)

Předpověď počasí

Zpráva byla vytvořena před 2 hodinami a 9 minutami, v 08:00 UTC
Předpověď platná od 06 v 09 UTC do 07 v 09 UTC
Jihojihovýchodní vítr 8 kt
Viditelnost 10 km a více
Skoro jasno ve výšce 2000 ft
Změna
od 06 v 18 UTC do 06 v 20 UTC
vítr z různých směrů 3 kt

TAF: LELL 060800Z 0609/0709 16008KT 9999 FEW020 TX18/0612Z TN09/0706Z BECMG 0618/0620 VRB03KT

Stav a předpovědi počasí z více než 4 000 letišť (zprávy METAR a TAF).

Červené a žluté tečky na mapě představují dostupné meteorologické stanice.

Když kurzor umístíte na tečku, zobrazí se název stanice.

Pak kliknutím zobrazíte stav a předpověď počasí.

Chcete-li změnit mapu, kliknutím na zelené tlačítko se znaménkem +mapu přiblížíte, kliknutím na zelené tlačítko se znaménkem – mapu oddálíte a kliknutím na zelené šipky přejdete na sousední mapy.


METAR-TAF: